sensor_id;sensor_type;location;lat;lon;timestamp;pressure;altitude;pressure_sealevel;temperature;humidity
41040;BME280;48586;50.122;18.972;2022-08-21T00:00:26;98126.66;;;20.61;83.52
41040;BME280;48586;50.122;18.972;2022-08-21T00:03:30;98124.19;;;20.65;83.27
41040;BME280;48586;50.122;18.972;2022-08-21T00:06:32;98124.41;;;20.68;83.35
41040;BME280;48586;50.122;18.972;2022-08-21T00:09:34;98123.63;;;20.68;83.34
41040;BME280;48586;50.122;18.972;2022-08-21T00:12:37;98119.56;;;20.70;83.44
41040;BME280;48586;50.122;18.972;2022-08-21T00:15:40;98118.69;;;20.75;83.29
41040;BME280;48586;50.122;18.972;2022-08-21T00:18:43;98112.44;;;20.80;83.21
41040;BME280;48586;50.122;18.972;2022-08-21T00:21:46;98112.44;;;20.80;83.08
41040;BME280;48586;50.122;18.972;2022-08-21T00:24:48;98109.19;;;20.83;83.23
41040;BME280;48586;50.122;18.972;2022-08-21T00:27:51;98108.59;;;20.91;83.24
41040;BME280;48586;50.122;18.972;2022-08-21T00:30:54;98106.56;;;21.02;83.23
41040;BME280;48586;50.122;18.972;2022-08-21T00:33:58;98101.53;;;21.14;83.23
41040;BME280;48586;50.122;18.972;2022-08-21T00:37:00;98098.22;;;21.22;82.97
41040;BME280;48586;50.122;18.972;2022-08-21T00:40:04;98087.06;;;21.29;82.98
41040;BME280;48586;50.122;18.972;2022-08-21T00:43:09;98082.91;;;21.36;82.97
41040;BME280;48586;50.122;18.972;2022-08-21T00:46:12;98078.53;;;21.40;82.71
41040;BME280;48586;50.122;18.972;2022-08-21T00:49:15;98062.81;;;21.48;82.83
41040;BME280;48586;50.122;18.972;2022-08-21T00:52:22;98051.41;;;21.51;82.57
41040;BME280;48586;50.122;18.972;2022-08-21T00:55:26;98047.81;;;21.55;82.42
41040;BME280;48586;50.122;18.972;2022-08-21T00:58:31;98043.66;;;21.63;82.75
41040;BME280;48586;50.122;18.972;2022-08-21T01:01:36;98042.78;;;21.67;82.40
41040;BME280;48586;50.122;18.972;2022-08-21T01:04:40;98045.41;;;21.73;82.43
41040;BME280;48586;50.122;18.972;2022-08-21T01:07:43;98052.34;;;21.79;82.02
41040;BME280;48586;50.122;18.972;2022-08-21T01:10:46;98045.63;;;21.76;81.96
41040;BME280;48586;50.122;18.972;2022-08-21T01:13:49;98057.03;;;21.73;81.59
41040;BME280;48586;50.122;18.972;2022-08-21T01:16:52;98047.91;;;21.69;81.87
41040;BME280;48586;50.122;18.972;2022-08-21T01:19:59;98045.56;;;21.62;81.76
41040;BME280;48586;50.122;18.972;2022-08-21T01:23:03;98047.03;;;21.55;81.74
41040;BME280;48586;50.122;18.972;2022-08-21T01:26:07;98041.22;;;21.48;81.90
41040;BME280;48586;50.122;18.972;2022-08-21T01:29:16;98030.72;;;21.46;81.69
41040;BME280;48586;50.122;18.972;2022-08-21T01:32:22;98026.44;;;21.45;81.73
41040;BME280;48586;50.122;18.972;2022-08-21T01:35:24;98016.44;;;21.45;81.96
41040;BME280;48586;50.122;18.972;2022-08-21T01:38:28;98017.84;;;21.43;81.88
41040;BME280;48586;50.122;18.972;2022-08-21T01:41:30;98007.34;;;21.41;81.95
41040;BME280;48586;50.122;18.972;2022-08-21T01:44:33;98005.16;;;21.43;81.76
41040;BME280;48586;50.122;18.972;2022-08-21T01:47:36;98001.88;;;21.47;81.66
41040;BME280;48586;50.122;18.972;2022-08-21T01:50:38;97979.50;;;21.46;82.21
41040;BME280;48586;50.122;18.972;2022-08-21T01:53:42;97970.91;;;21.44;82.16
41040;BME280;48586;50.122;18.972;2022-08-21T01:56:46;97987.31;;;21.48;82.24
41040;BME280;48586;50.122;18.972;2022-08-21T01:59:52;97995.31;;;21.53;82.41
41040;BME280;48586;50.122;18.972;2022-08-21T02:02:55;97993.00;;;21.60;82.46
41040;BME280;48586;50.122;18.972;2022-08-21T02:05:57;97988.34;;;21.65;82.09
41040;BME280;48586;50.122;18.972;2022-08-21T02:09:01;97983.38;;;21.73;82.18
41040;BME280;48586;50.122;18.972;2022-08-21T02:12:04;97991.69;;;21.76;82.19
41040;BME280;48586;50.122;18.972;2022-08-21T02:15:07;97991.91;;;21.80;82.12
41040;BME280;48586;50.122;18.972;2022-08-21T02:18:10;97975.13;;;21.83;81.94
41040;BME280;48586;50.122;18.972;2022-08-21T02:21:12;97968.03;;;21.87;82.07
41040;BME280;48586;50.122;18.972;2022-08-21T02:24:16;97969.06;;;21.91;81.94
41040;BME280;48586;50.122;18.972;2022-08-21T02:27:18;97964.94;;;21.93;81.81
41040;BME280;48586;50.122;18.972;2022-08-21T02:30:23;97964.94;;;21.93;81.95
41040;BME280;48586;50.122;18.972;2022-08-21T02:33:25;97964.94;;;21.93;81.59
41040;BME280;48586;50.122;18.972;2022-08-21T02:36:28;97951.56;;;21.88;81.28
41040;BME280;48586;50.122;18.972;2022-08-21T02:39:31;97969.44;;;21.84;81.58
41040;BME280;48586;50.122;18.972;2022-08-21T02:42:33;97972.81;;;21.76;81.60
41040;BME280;48586;50.122;18.972;2022-08-21T02:45:36;97974.78;;;21.70;81.86
41040;BME280;48586;50.122;18.972;2022-08-21T02:48:39;97967.66;;;21.61;81.99
41040;BME280;48586;50.122;18.972;2022-08-21T02:51:41;97974.13;;;21.60;82.01
41040;BME280;48586;50.122;18.972;2022-08-21T02:54:44;97973.84;;;21.61;82.02
41040;BME280;48586;50.122;18.972;2022-08-21T02:57:46;97966.03;;;21.60;81.89
41040;BME280;48586;50.122;18.972;2022-08-21T03:00:51;97965.25;;;21.59;81.90
41040;BME280;48586;50.122;18.972;2022-08-21T03:03:53;97972.31;;;21.55;81.61
41040;BME280;48586;50.122;18.972;2022-08-21T03:06:56;97973.44;;;21.54;81.52
41040;BME280;48586;50.122;18.972;2022-08-21T03:09:59;97972.63;;;21.54;81.66
41040;BME280;48586;50.122;18.972;2022-08-21T03:13:02;97978.53;;;21.56;81.60
41040;BME280;48586;50.122;18.972;2022-08-21T03:16:05;97987.44;;;21.56;81.82
41040;BME280;48586;50.122;18.972;2022-08-21T03:19:08;97990.94;;;21.57;81.78
41040;BME280;48586;50.122;18.972;2022-08-21T03:22:10;97993.31;;;21.58;81.98
41040;BME280;48586;50.122;18.972;2022-08-21T03:25:15;98003.00;;;21.59;82.20
41040;BME280;48586;50.122;18.972;2022-08-21T03:28:19;98006.00;;;21.58;82.04
41040;BME280;48586;50.122;18.972;2022-08-21T03:31:22;98013.00;;;21.59;81.98
41040;BME280;48586;50.122;18.972;2022-08-21T03:34:24;98012.78;;;21.55;81.65
41040;BME280;48586;50.122;18.972;2022-08-21T03:37:27;98006.69;;;21.50;81.82
41040;BME280;48586;50.122;18.972;2022-08-21T03:40:30;98014.53;;;21.46;82.08
41040;BME280;48586;50.122;18.972;2022-08-21T03:43:33;98016.97;;;21.48;82.19
41040;BME280;48586;50.122;18.972;2022-08-21T03:46:35;98016.09;;;21.52;81.91
41040;BME280;48586;50.122;18.972;2022-08-21T03:49:38;98013.09;;;21.54;81.72
41040;BME280;48586;50.122;18.972;2022-08-21T03:52:41;98007.69;;;21.54;82.28
41040;BME280;48586;50.122;18.972;2022-08-21T03:55:44;98008.91;;;21.61;82.06
41040;BME280;48586;50.122;18.972;2022-08-21T03:58:47;98009.63;;;21.67;81.91
41040;BME280;48586;50.122;18.972;2022-08-21T04:01:53;98017.41;;;21.68;81.89
41040;BME280;48586;50.122;18.972;2022-08-21T04:04:55;98010.94;;;21.69;81.87
41040;BME280;48586;50.122;18.972;2022-08-21T04:08:00;98009.78;;;21.76;82.19
41040;BME280;48586;50.122;18.972;2022-08-21T04:11:05;98011.00;;;21.83;81.87
41040;BME280;48586;50.122;18.972;2022-08-21T04:14:07;98012.81;;;21.88;81.76
41040;BME280;48586;50.122;18.972;2022-08-21T04:17:09;98017.81;;;21.94;81.53
41040;BME280;48586;50.122;18.972;2022-08-21T04:20:12;98015.81;;;22.00;81.60
41040;BME280;48586;50.122;18.972;2022-08-21T04:23:14;98017.13;;;22.03;81.28
41040;BME280;48586;50.122;18.972;2022-08-21T04:26:18;98023.13;;;22.00;81.35
41040;BME280;48586;50.122;18.972;2022-08-21T04:29:19;98021.50;;;21.99;81.42
41040;BME280;48586;50.122;18.972;2022-08-21T04:32:22;98024.81;;;21.96;81.01
41040;BME280;48586;50.122;18.972;2022-08-21T04:35:26;98019.00;;;21.88;81.24
41040;BME280;48586;50.122;18.972;2022-08-21T04:38:28;98013.19;;;21.81;81.30
41040;BME280;48586;50.122;18.972;2022-08-21T04:41:33;98019.75;;;21.75;81.23
41040;BME280;48586;50.122;18.972;2022-08-21T04:44:36;98033.41;;;21.65;81.65
41040;BME280;48586;50.122;18.972;2022-08-21T04:47:38;98029.16;;;21.59;81.51
41040;BME280;48586;50.122;18.972;2022-08-21T04:50:43;98032.13;;;21.43;82.22
41040;BME280;48586;50.122;18.972;2022-08-21T04:53:51;98025.72;;;21.39;82.37
41040;BME280;48586;50.122;18.972;2022-08-21T04:56:59;98024.13;;;21.38;82.54
41040;BME280;48586;50.122;18.972;2022-08-21T05:00:05;98025.81;;;21.34;82.51
41040;BME280;48586;50.122;18.972;2022-08-21T05:03:08;98026.00;;;21.38;82.61
41040;BME280;48586;50.122;18.972;2022-08-21T05:06:13;98020.47;;;21.48;82.65
41040;BME280;48586;50.122;18.972;2022-08-21T05:09:17;98018.69;;;21.57;82.86
41040;BME280;48586;50.122;18.972;2022-08-21T05:12:21;98019.31;;;21.68;82.74
41040;BME280;48586;50.122;18.972;2022-08-21T05:15:23;98020.34;;;21.72;82.13
41040;BME280;48586;50.122;18.972;2022-08-21T05:18:25;98024.38;;;21.75;82.21
41040;BME280;48586;50.122;18.972;2022-08-21T05:21:27;98037.59;;;21.71;82.19
41040;BME280;48586;50.122;18.972;2022-08-21T05:24:29;98030.09;;;21.68;82.06
41040;BME280;48586;50.122;18.972;2022-08-21T05:27:32;98037.13;;;21.69;82.27
41040;BME280;48586;50.122;18.972;2022-08-21T05:30:35;98036.75;;;21.76;82.55
41040;BME280;48586;50.122;18.972;2022-08-21T05:33:37;98030.69;;;21.84;82.32
41040;BME280;48586;50.122;18.972;2022-08-21T05:36:39;98026.50;;;21.91;82.33
41040;BME280;48586;50.122;18.972;2022-08-21T05:39:41;98031.59;;;21.93;82.10
41040;BME280;48586;50.122;18.972;2022-08-21T05:42:44;98039.69;;;21.93;81.88
41040;BME280;48586;50.122;18.972;2022-08-21T05:45:47;98045.59;;;21.95;81.87
41040;BME280;48586;50.122;18.972;2022-08-21T05:48:49;98036.41;;;21.96;82.14
41040;BME280;48586;50.122;18.972;2022-08-21T05:51:50;98042.28;;;21.98;81.85
41040;BME280;48586;50.122;18.972;2022-08-21T05:54:52;98048.69;;;22.02;82.16
41040;BME280;48586;50.122;18.972;2022-08-21T05:57:56;98052.63;;;22.10;82.29
41040;BME280;48586;50.122;18.972;2022-08-21T06:00:58;98055.31;;;22.10;82.04
41040;BME280;48586;50.122;18.972;2022-08-21T06:04:00;98055.00;;;22.11;82.18
41040;BME280;48586;50.122;18.972;2022-08-21T06:07:02;98060.34;;;22.16;82.49
41040;BME280;48586;50.122;18.972;2022-08-21T06:10:04;98057.03;;;22.19;82.29
41040;BME280;48586;50.122;18.972;2022-08-21T06:13:08;98051.94;;;22.32;82.66
41040;BME280;48586;50.122;18.972;2022-08-21T06:16:12;98045.47;;;22.47;82.16
41040;BME280;48586;50.122;18.972;2022-08-21T06:19:15;98045.50;;;22.60;82.28
41040;BME280;48586;50.122;18.972;2022-08-21T06:22:16;98051.78;;;22.69;81.95
41040;BME280;48586;50.122;18.972;2022-08-21T06:25:18;98054.28;;;22.66;81.55
41040;BME280;48586;50.122;18.972;2022-08-21T06:28:22;98057.34;;;22.45;80.67
41040;BME280;48586;50.122;18.972;2022-08-21T06:31:26;98061.63;;;22.19;80.86
41040;BME280;48586;50.122;18.972;2022-08-21T06:34:28;98068.09;;;22.04;80.83
41040;BME280;48586;50.122;18.972;2022-08-21T06:37:30;98065.56;;;21.94;80.58
41040;BME280;48586;50.122;18.972;2022-08-21T06:40:32;98068.56;;;21.92;80.81
41040;BME280;48586;50.122;18.972;2022-08-21T06:43:35;98072.38;;;21.91;79.98
41040;BME280;48586;50.122;18.972;2022-08-21T06:46:37;98080.34;;;21.83;79.86
41040;BME280;48586;50.122;18.972;2022-08-21T06:49:39;98081.72;;;21.80;79.89
41040;BME280;48586;50.122;18.972;2022-08-21T06:52:41;98080.63;;;21.62;79.43
41040;BME280;48586;50.122;18.972;2022-08-21T06:55:43;98087.56;;;21.50;79.61
41040;BME280;48586;50.122;18.972;2022-08-21T06:58:47;98089.81;;;21.42;79.83
41040;BME280;48586;50.122;18.972;2022-08-21T07:01:48;98086.75;;;21.49;79.72
41040;BME280;48586;50.122;18.972;2022-08-21T07:04:50;98088.97;;;21.47;79.18
41040;BME280;48586;50.122;18.972;2022-08-21T07:07:52;98088.13;;;21.47;79.28
41040;BME280;48586;50.122;18.972;2022-08-21T07:10:55;98096.44;;;21.50;78.68
41040;BME280;48586;50.122;18.972;2022-08-21T07:13:59;98100.47;;;21.53;78.70
41040;BME280;48586;50.122;18.972;2022-08-21T07:17:01;98109.56;;;21.57;78.47
41040;BME280;48586;50.122;18.972;2022-08-21T07:20:05;98102.59;;;21.56;78.04
41040;BME280;48586;50.122;18.972;2022-08-21T07:23:09;98106.78;;;21.62;78.25
41040;BME280;48586;50.122;18.972;2022-08-21T07:26:12;98113.50;;;21.64;77.81
41040;BME280;48586;50.122;18.972;2022-08-21T07:29:17;98111.88;;;21.63;77.15
41040;BME280;48586;50.122;18.972;2022-08-21T07:32:20;98110.28;;;21.62;77.02
41040;BME280;48586;50.122;18.972;2022-08-21T07:35:22;98114.66;;;21.58;76.76
41040;BME280;48586;50.122;18.972;2022-08-21T07:38:24;98113.66;;;21.54;76.18
41040;BME280;48586;50.122;18.972;2022-08-21T07:41:28;98116.13;;;21.51;75.99
41040;BME280;48586;50.122;18.972;2022-08-21T07:44:33;98108.91;;;21.46;75.67
41040;BME280;48586;50.122;18.972;2022-08-21T07:47:35;98110.31;;;21.43;75.81
41040;BME280;48586;50.122;18.972;2022-08-21T07:50:39;98109.50;;;21.43;75.39
41040;BME280;48586;50.122;18.972;2022-08-21T07:53:47;98111.38;;;21.42;75.31
41040;BME280;48586;50.122;18.972;2022-08-21T07:56:49;98109.84;;;21.36;75.20
41040;BME280;48586;50.122;18.972;2022-08-21T07:59:52;98115.25;;;21.36;75.12
41040;BME280;48586;50.122;18.972;2022-08-21T08:02:55;98109.28;;;21.39;74.81
41040;BME280;48586;50.122;18.972;2022-08-21T08:05:57;98103.66;;;21.36;74.44
41040;BME280;48586;50.122;18.972;2022-08-21T08:08:58;98108.38;;;21.25;74.49
41040;BME280;48586;50.122;18.972;2022-08-21T08:12:03;98106.00;;;21.24;74.61
41040;BME280;48586;50.122;18.972;2022-08-21T08:15:09;98107.34;;;21.21;74.27
41040;BME280;48586;50.122;18.972;2022-08-21T08:18:12;98102.84;;;21.16;74.38
41040;BME280;48586;50.122;18.972;2022-08-21T08:21:14;98104.47;;;21.17;74.57
41040;BME280;48586;50.122;18.972;2022-08-21T08:24:16;98105.53;;;21.16;74.67
41040;BME280;48586;50.122;18.972;2022-08-21T08:27:18;98102.81;;;21.22;74.26
41040;BME280;48586;50.122;18.972;2022-08-21T08:30:22;98095.22;;;21.24;74.45
41040;BME280;48586;50.122;18.972;2022-08-21T08:33:24;98098.94;;;21.28;74.36
41040;BME280;48586;50.122;18.972;2022-08-21T08:36:32;98096.31;;;21.41;74.08
41040;BME280;48586;50.122;18.972;2022-08-21T08:39:34;98099.81;;;21.61;73.77
41040;BME280;48586;50.122;18.972;2022-08-21T08:42:36;98098.31;;;21.68;73.30
41040;BME280;48586;50.122;18.972;2022-08-21T08:45:42;98094.72;;;21.78;73.09
41040;BME280;48586;50.122;18.972;2022-08-21T08:48:50;98093.97;;;21.91;73.48
41040;BME280;48586;50.122;18.972;2022-08-21T08:51:57;98092.41;;;22.04;72.92
41040;BME280;48586;50.122;18.972;2022-08-21T08:55:04;98092.97;;;22.01;72.22
41040;BME280;48586;50.122;18.972;2022-08-21T08:58:07;98087.75;;;21.91;72.27
41040;BME280;48586;50.122;18.972;2022-08-21T09:01:16;98084.00;;;22.06;72.52
41040;BME280;48586;50.122;18.972;2022-08-21T09:04:23;98087.91;;;22.13;71.35
41040;BME280;48586;50.122;18.972;2022-08-21T09:07:37;98088.81;;;22.23;71.04
41040;BME280;48586;50.122;18.972;2022-08-21T09:10:45;98105.81;;;22.23;71.29
41040;BME280;48586;50.122;18.972;2022-08-21T09:13:57;98108.09;;;22.16;71.59
41040;BME280;48586;50.122;18.972;2022-08-21T09:17:12;98106.69;;;22.05;70.54
41040;BME280;48586;50.122;18.972;2022-08-21T09:20:27;98111.66;;;21.98;71.28
41040;BME280;48586;50.122;18.972;2022-08-21T09:23:41;98107.06;;;21.98;71.39
41040;BME280;48586;50.122;18.972;2022-08-21T09:26:49;98119.75;;;21.98;71.73
41040;BME280;48586;50.122;18.972;2022-08-21T09:29:57;98121.34;;;21.99;71.54
41040;BME280;48586;50.122;18.972;2022-08-21T09:33:00;98121.50;;;21.88;72.03
41040;BME280;48586;50.122;18.972;2022-08-21T09:36:03;98114.22;;;21.70;71.65
41040;BME280;48586;50.122;18.972;2022-08-21T09:39:06;98127.94;;;21.55;71.91
41040;BME280;48586;50.122;18.972;2022-08-21T09:42:10;98130.19;;;21.48;72.42
41040;BME280;48586;50.122;18.972;2022-08-21T09:45:14;98122.69;;;21.44;72.62
41040;BME280;48586;50.122;18.972;2022-08-21T09:48:20;98128.81;;;21.50;72.82
41040;BME280;48586;50.122;18.972;2022-08-21T09:51:24;98133.97;;;21.47;72.86
41040;BME280;48586;50.122;18.972;2022-08-21T09:54:30;98137.84;;;21.40;73.12
41040;BME280;48586;50.122;18.972;2022-08-21T09:57:33;98141.63;;;21.39;73.32
41040;BME280;48586;50.122;18.972;2022-08-21T10:00:39;98136.75;;;21.41;73.03
41040;BME280;48586;50.122;18.972;2022-08-21T10:03:44;98147.03;;;21.39;73.08
41040;BME280;48586;50.122;18.972;2022-08-21T10:06:46;98147.69;;;21.31;73.64
41040;BME280;48586;50.122;18.972;2022-08-21T10:09:59;98140.09;;;21.33;73.56
41040;BME280;48586;50.122;18.972;2022-08-21T10:13:09;98143.59;;;21.34;73.92
41040;BME280;48586;50.122;18.972;2022-08-21T10:16:23;98138.00;;;21.30;74.01
41040;BME280;48586;50.122;18.972;2022-08-21T10:19:36;98137.63;;;21.37;73.85
41040;BME280;48586;50.122;18.972;2022-08-21T10:22:46;98128.50;;;21.33;74.28
41040;BME280;48586;50.122;18.972;2022-08-21T10:25:54;98131.81;;;21.30;74.60
41040;BME280;48586;50.122;18.972;2022-08-21T10:29:07;98140.31;;;21.18;76.07
41040;BME280;48586;50.122;18.972;2022-08-21T10:32:23;98144.44;;;21.10;76.93
41040;BME280;48586;50.122;18.972;2022-08-21T10:35:33;98152.19;;;20.93;77.36
41040;BME280;48586;50.122;18.972;2022-08-21T10:38:58;98145.56;;;20.80;78.11
41040;BME280;48586;50.122;18.972;2022-08-21T10:42:19;98143.50;;;20.72;77.98
41040;BME280;48586;50.122;18.972;2022-08-21T10:45:33;98141.19;;;20.60;78.74
41040;BME280;48586;50.122;18.972;2022-08-21T10:48:46;98148.75;;;20.58;78.84
41040;BME280;48586;50.122;18.972;2022-08-21T10:51:56;98141.84;;;20.52;79.29
41040;BME280;48586;50.122;18.972;2022-08-21T10:55:08;98138.97;;;20.43;79.70
41040;BME280;48586;50.122;18.972;2022-08-21T10:58:14;98141.97;;;20.37;80.11
41040;BME280;48586;50.122;18.972;2022-08-21T11:01:25;98147.66;;;20.35;79.94
41040;BME280;48586;50.122;18.972;2022-08-21T11:04:32;98152.44;;;20.43;79.82
41040;BME280;48586;50.122;18.972;2022-08-21T11:07:45;98137.53;;;20.51;79.72
41040;BME280;48586;50.122;18.972;2022-08-21T11:10:51;98138.50;;;20.60;79.49
41040;BME280;48586;50.122;18.972;2022-08-21T11:13:56;98141.38;;;20.69;78.89
41040;BME280;48586;50.122;18.972;2022-08-21T11:17:05;98140.97;;;20.81;79.07
41040;BME280;48586;50.122;18.972;2022-08-21T11:20:13;98136.19;;;21.02;78.70
41040;BME280;48586;50.122;18.972;2022-08-21T11:23:22;98132.16;;;21.23;78.23
41040;BME280;48586;50.122;18.972;2022-08-21T11:26:30;98129.44;;;21.42;77.43
41040;BME280;48586;50.122;18.972;2022-08-21T11:29:38;98131.72;;;21.54;77.26
41040;BME280;48586;50.122;18.972;2022-08-21T11:32:57;98129.97;;;21.63;76.61
41040;BME280;48586;50.122;18.972;2022-08-21T11:36:11;98131.56;;;21.64;76.57
41040;BME280;48586;50.122;18.972;2022-08-21T11:39:25;98132.66;;;21.63;76.46
41040;BME280;48586;50.122;18.972;2022-08-21T11:42:37;98129.16;;;21.62;76.21
41040;BME280;48586;50.122;18.972;2022-08-21T11:45:47;98137.03;;;21.59;76.35
41040;BME280;48586;50.122;18.972;2022-08-21T11:49:00;98134.34;;;21.59;76.52
41040;BME280;48586;50.122;18.972;2022-08-21T11:52:09;98137.34;;;21.57;76.31
41040;BME280;48586;50.122;18.972;2022-08-21T11:55:20;98131.66;;;21.59;76.58
41040;BME280;48586;50.122;18.972;2022-08-21T11:58:28;98133.63;;;21.53;76.14
41040;BME280;48586;50.122;18.972;2022-08-21T12:01:36;98135.38;;;21.44;76.36
41040;BME280;48586;50.122;18.972;2022-08-21T12:04:45;98134.28;;;21.45;76.65
41040;BME280;48586;50.122;18.972;2022-08-21T12:07:48;98136.31;;;21.34;77.03
41040;BME280;48586;50.122;18.972;2022-08-21T12:11:05;98138.00;;;21.30;77.81
41040;BME280;48586;50.122;18.972;2022-08-21T12:14:14;98136.03;;;21.36;77.60
41040;BME280;48586;50.122;18.972;2022-08-21T12:17:19;98135.22;;;21.35;77.73
41040;BME280;48586;50.122;18.972;2022-08-21T12:23:46;98136.03;;;21.36;77.41
41040;BME280;48586;50.122;18.972;2022-08-21T12:26:52;98137.91;;;21.35;76.92
41040;BME280;48586;50.122;18.972;2022-08-21T12:29:58;98139.22;;;21.38;77.01
41040;BME280;48586;50.122;18.972;2022-08-21T12:33:03;98144.97;;;21.31;76.92
41040;BME280;48586;50.122;18.972;2022-08-21T12:36:09;98139.97;;;21.01;76.78
41040;BME280;48586;50.122;18.972;2022-08-21T12:39:14;98149.28;;;20.60;76.76
41040;BME280;48586;50.122;18.972;2022-08-21T12:42:23;98153.00;;;20.06;78.16
41040;BME280;48586;50.122;18.972;2022-08-21T12:45:31;98147.34;;;19.68;79.04
41040;BME280;48586;50.122;18.972;2022-08-21T12:48:41;98149.91;;;19.44;79.41
41040;BME280;48586;50.122;18.972;2022-08-21T12:51:54;98153.78;;;19.18;80.09
41040;BME280;48586;50.122;18.972;2022-08-21T12:54:59;98145.78;;;19.03;80.51
41040;BME280;48586;50.122;18.972;2022-08-21T12:58:05;98152.00;;;18.93;80.93
41040;BME280;48586;50.122;18.972;2022-08-21T13:01:19;98154.69;;;18.88;81.03
41040;BME280;48586;50.122;18.972;2022-08-21T13:04:34;98161.41;;;18.90;81.05
41040;BME280;48586;50.122;18.972;2022-08-21T13:07:44;98164.09;;;18.85;81.16
41040;BME280;48586;50.122;18.972;2022-08-21T13:10:48;98161.41;;;18.85;80.70
41040;BME280;48586;50.122;18.972;2022-08-21T13:13:53;98169.22;;;18.77;81.13
41040;BME280;48586;50.122;18.972;2022-08-21T13:16:56;98172.19;;;18.70;80.77
41040;BME280;48586;50.122;18.972;2022-08-21T13:20:01;98170.06;;;18.62;81.24
41040;BME280;48586;50.122;18.972;2022-08-21T13:23:19;98169.81;;;18.58;81.50
41040;BME280;48586;50.122;18.972;2022-08-21T13:26:22;98173.28;;;18.49;82.29
41040;BME280;48586;50.122;18.972;2022-08-21T13:29:30;98170.63;;;18.43;82.22
41040;BME280;48586;50.122;18.972;2022-08-21T13:32:34;98159.91;;;18.43;82.52
41040;BME280;48586;50.122;18.972;2022-08-21T13:35:47;98167.94;;;18.54;82.60
41040;BME280;48586;50.122;18.972;2022-08-21T13:38:51;98172.78;;;18.41;82.94
41040;BME280;48586;50.122;18.972;2022-08-21T13:41:56;98175.50;;;18.36;83.38
41040;BME280;48586;50.122;18.972;2022-08-21T13:45:00;98165.81;;;18.30;83.63
41040;BME280;48586;50.122;18.972;2022-08-21T13:48:03;98177.91;;;18.28;83.85
41040;BME280;48586;50.122;18.972;2022-08-21T13:51:06;98180.84;;;18.26;83.85
41040;BME280;48586;50.122;18.972;2022-08-21T13:54:21;98180.84;;;18.26;83.94
41040;BME280;48586;50.122;18.972;2022-08-21T13:57:29;98180.06;;;18.15;84.00
41040;BME280;48586;50.122;18.972;2022-08-21T14:00:34;98177.63;;;18.14;84.23
41040;BME280;48586;50.122;18.972;2022-08-21T14:03:42;98175.97;;;18.13;84.23
41040;BME280;48586;50.122;18.972;2022-08-21T14:06:44;98185.41;;;18.20;84.10
41040;BME280;48586;50.122;18.972;2022-08-21T14:09:47;98194.25;;;18.21;83.72
41040;BME280;48586;50.122;18.972;2022-08-21T14:12:52;98193.72;;;18.24;83.46
41040;BME280;48586;50.122;18.972;2022-08-21T14:15:57;98188.38;;;18.24;83.57
41040;BME280;48586;50.122;18.972;2022-08-21T14:19:07;98198.00;;;18.25;83.51
41040;BME280;48586;50.122;18.972;2022-08-21T14:22:29;98193.72;;;18.34;83.49
41040;BME280;48586;50.122;18.972;2022-08-21T14:25:38;98191.31;;;18.38;82.99
41040;BME280;48586;50.122;18.972;2022-08-21T14:28:41;98188.09;;;18.46;82.54
41040;BME280;48586;50.122;18.972;2022-08-21T14:31:49;98185.66;;;18.50;82.45
41040;BME280;48586;50.122;18.972;2022-08-21T14:34:51;98179.72;;;18.53;82.29
41040;BME280;48586;50.122;18.972;2022-08-21T14:37:54;98177.06;;;18.63;81.78
41040;BME280;48586;50.122;18.972;2022-08-21T14:40:59;98185.38;;;18.66;81.70
41040;BME280;48586;50.122;18.972;2022-08-21T14:44:02;98193.16;;;18.68;81.15
41040;BME280;48586;50.122;18.972;2022-08-21T14:47:08;98192.06;;;18.69;81.13
41040;BME280;48586;50.122;18.972;2022-08-21T14:50:11;98200.41;;;18.62;81.26
41040;BME280;48586;50.122;18.972;2022-08-21T14:53:14;98203.91;;;18.58;81.31
41040;BME280;48586;50.122;18.972;2022-08-21T14:56:17;98202.56;;;18.50;81.53
41040;BME280;48586;50.122;18.972;2022-08-21T14:59:19;98201.75;;;18.44;81.53
41040;BME280;48586;50.122;18.972;2022-08-21T15:02:23;98204.72;;;18.28;82.06
41040;BME280;48586;50.122;18.972;2022-08-21T15:05:25;98196.91;;;18.11;82.57
41040;BME280;48586;50.122;18.972;2022-08-21T15:08:28;98206.56;;;18.02;82.69
41040;BME280;48586;50.122;18.972;2022-08-21T15:11:32;98210.56;;;17.99;82.75
41040;BME280;48586;50.122;18.972;2022-08-21T15:14:36;98208.69;;;18.00;83.63
41040;BME280;48586;50.122;18.972;2022-08-21T15:17:41;98203.59;;;18.03;83.00
41040;BME280;48586;50.122;18.972;2022-08-21T15:20:44;98208.97;;;18.03;82.53
41040;BME280;48586;50.122;18.972;2022-08-21T15:23:46;98220.50;;;17.93;82.61
41040;BME280;48586;50.122;18.972;2022-08-21T15:26:48;98230.13;;;17.84;82.56
41040;BME280;48586;50.122;18.972;2022-08-21T15:29:50;98230.94;;;17.85;83.29
41040;BME280;48586;50.122;18.972;2022-08-21T15:32:56;98236.31;;;17.90;83.21
41040;BME280;48586;50.122;18.972;2022-08-21T15:35:58;98237.63;;;17.92;82.78
41040;BME280;48586;50.122;18.972;2022-08-21T15:39:02;98241.91;;;17.88;82.82
41040;BME280;48586;50.122;18.972;2022-08-21T15:42:05;98231.97;;;17.84;83.26
41040;BME280;48586;50.122;18.972;2022-08-21T15:45:09;98228.25;;;17.85;82.96
41040;BME280;48586;50.122;18.972;2022-08-21T15:48:15;98230.09;;;17.79;83.04
41040;BME280;48586;50.122;18.972;2022-08-21T15:51:18;98237.34;;;17.79;83.19
41040;BME280;48586;50.122;18.972;2022-08-21T15:54:21;98231.19;;;17.83;82.97
41040;BME280;48586;50.122;18.972;2022-08-21T15:57:24;98234.94;;;17.72;83.23
41040;BME280;48586;50.122;18.972;2022-08-21T16:00:27;98240.50;;;17.60;83.77
41040;BME280;48586;50.122;18.972;2022-08-21T16:03:33;98237.56;;;17.57;83.85
41040;BME280;48586;50.122;18.972;2022-08-21T16:06:35;98245.56;;;17.52;84.46
41040;BME280;48586;50.122;18.972;2022-08-21T16:09:37;98249.88;;;17.58;83.74